createdAt,value
2023-03-15T00:01:24.264Z,15.37
2023-03-15T00:03:51.277Z,15.39
2023-03-15T00:06:18.183Z,15.38
2023-03-15T00:08:47.998Z,15.40
2023-03-15T00:11:17.253Z,15.28
2023-03-15T00:13:45.082Z,15.32
2023-03-15T00:16:12.388Z,15.33
2023-03-15T00:18:39.196Z,15.32
2023-03-15T00:21:06.049Z,15.19
2023-03-15T00:23:32.804Z,15.14
2023-03-15T00:25:59.670Z,15.17
2023-03-15T00:28:26.545Z,15.19
2023-03-15T00:31:13.546Z,15.17
2023-03-15T00:33:41.714Z,15.19
2023-03-15T00:36:09.647Z,15.18
2023-03-15T00:38:38.166Z,15.09
2023-03-15T00:41:13.081Z,15.09
2023-03-15T00:43:41.281Z,15.08
2023-03-15T00:46:08.527Z,14.96
2023-03-15T00:48:36.416Z,14.82
2023-03-15T00:51:07.044Z,14.90
2023-03-15T00:53:35.020Z,14.91
2023-03-15T00:56:16.235Z,14.89
2023-03-15T00:58:43.264Z,14.89
2023-03-15T01:01:13.571Z,14.94
2023-03-15T01:03:41.046Z,14.88
2023-03-15T01:06:17.019Z,14.90
2023-03-15T01:08:44.811Z,14.91
2023-03-15T01:11:18.147Z,14.81
2023-03-15T01:13:44.994Z,14.77
2023-03-15T01:16:14.508Z,14.62
2023-03-15T01:18:43.433Z,14.55
2023-03-15T01:21:12.822Z,14.42
2023-03-15T01:23:40.092Z,14.38
2023-03-15T01:26:10.554Z,14.46
2023-03-15T01:28:37.432Z,14.52
2023-03-15T01:31:04.657Z,14.57
2023-03-15T01:33:31.610Z,14.59
2023-03-15T01:36:06.761Z,14.42
2023-03-15T01:38:34.774Z,14.38
2023-03-15T01:41:02.208Z,14.40
2023-03-15T01:43:31.981Z,14.41
2023-03-15T01:46:02.388Z,14.38
2023-03-15T01:48:35.351Z,14.35
2023-03-15T01:51:08.539Z,14.28
2023-03-15T01:53:36.860Z,14.21
2023-03-15T01:56:05.011Z,14.11
2023-03-15T01:58:37.204Z,14.09
2023-03-15T02:01:04.718Z,13.92
2023-03-15T02:03:39.398Z,13.90
2023-03-15T02:06:09.949Z,13.80
2023-03-15T02:09:01.397Z,13.89
2023-03-15T02:11:35.667Z,13.62
2023-03-15T02:14:05.558Z,13.60
2023-03-15T02:16:34.419Z,13.59
2023-03-15T02:19:12.133Z,13.55
2023-03-15T02:21:38.883Z,13.45
2023-03-15T02:24:08.480Z,13.59
2023-03-15T02:26:42.666Z,13.62
2023-03-15T02:29:09.686Z,13.58
2023-03-15T02:31:38.045Z,13.58
2023-03-15T02:34:08.627Z,13.51
2023-03-15T02:36:36.865Z,13.50
2023-03-15T02:39:19.827Z,13.44
2023-03-15T02:41:56.931Z,13.48
2023-03-15T02:44:30.426Z,13.51
2023-03-15T02:47:03.602Z,13.54
2023-03-15T02:49:35.485Z,13.52
2023-03-15T02:52:02.334Z,13.55
2023-03-15T02:54:29.083Z,13.37
2023-03-15T02:56:55.830Z,13.34
2023-03-15T02:59:22.698Z,13.36
2023-03-15T03:01:49.636Z,13.29
2023-03-15T03:04:16.520Z,13.32
2023-03-15T03:06:44.116Z,13.32
2023-03-15T03:09:14.034Z,13.10
2023-03-15T03:11:42.765Z,12.78
2023-03-15T03:14:09.548Z,12.84
2023-03-15T03:16:36.391Z,12.83
2023-03-15T03:19:04.150Z,13.00
2023-03-15T03:21:32.314Z,12.95
2023-03-15T03:23:59.094Z,12.90
2023-03-15T03:26:27.929Z,12.93
2023-03-15T03:28:56.272Z,12.80
2023-03-15T03:31:27.322Z,12.91
2023-03-15T03:33:56.999Z,12.92
2023-03-15T03:36:25.087Z,12.85
2023-03-15T03:38:53.773Z,12.76
2023-03-15T03:41:21.440Z,12.57
2023-03-15T03:43:48.569Z,12.65
2023-03-15T03:46:15.958Z,12.64
2023-03-15T03:48:47.889Z,12.70
2023-03-15T03:51:14.692Z,12.73
2023-03-15T03:53:41.400Z,12.68
2023-03-15T03:56:08.633Z,12.60
2023-03-15T03:58:36.671Z,12.64
2023-03-15T04:01:17.350Z,12.64
2023-03-15T04:03:49.426Z,12.58
2023-03-15T04:06:19.326Z,12.26
2023-03-15T04:08:47.634Z,12.32
2023-03-15T04:11:36.376Z,12.39
2023-03-15T04:14:06.568Z,12.54
2023-03-15T04:16:33.826Z,12.57
2023-03-15T04:19:04.540Z,12.69
2023-03-15T04:21:33.108Z,12.74
2023-03-15T04:24:35.968Z,12.60
2023-03-15T04:27:14.539Z,12.51
2023-03-15T04:30:05.446Z,12.55
2023-03-15T04:32:42.586Z,12.55
2023-03-15T04:35:32.581Z,12.47
2023-03-15T04:38:12.823Z,12.48
2023-03-15T04:41:10.862Z,12.47
2023-03-15T04:43:56.246Z,12.43
2023-03-15T04:46:34.000Z,12.42
2023-03-15T04:49:13.937Z,12.46
2023-03-15T04:52:15.778Z,12.59
2023-03-15T04:55:09.794Z,12.70
2023-03-15T04:57:57.497Z,12.64
2023-03-15T05:00:54.111Z,12.72
2023-03-15T05:03:34.247Z,12.75
2023-03-15T05:06:11.998Z,12.58
2023-03-15T05:08:57.328Z,12.54
2023-03-15T05:11:42.529Z,12.60
2023-03-15T05:14:28.018Z,12.66
2023-03-15T05:17:10.668Z,12.61
2023-03-15T05:19:51.745Z,12.58
2023-03-15T05:22:41.927Z,12.63
2023-03-15T05:25:12.220Z,12.66
2023-03-15T05:27:57.737Z,12.54
2023-03-15T05:30:35.085Z,12.59
2023-03-15T05:33:46.884Z,12.39
2023-03-15T05:36:31.711Z,12.33
2023-03-15T05:39:19.385Z,12.22
2023-03-15T05:42:12.286Z,12.23
2023-03-15T05:45:14.213Z,12.21
2023-03-15T05:48:07.206Z,12.29
2023-03-15T05:50:40.060Z,12.30
2023-03-15T05:53:29.984Z,12.24
2023-03-15T05:56:31.866Z,12.00
2023-03-15T05:59:10.559Z,11.94
2023-03-15T06:02:12.536Z,11.79
2023-03-15T06:04:51.973Z,11.79
2023-03-15T06:07:22.965Z,11.88
2023-03-15T06:09:49.949Z,11.94
2023-03-15T06:12:16.777Z,12.04
2023-03-15T06:14:43.657Z,12.09
2023-03-15T06:17:11.752Z,11.99
2023-03-15T06:19:42.039Z,11.87
2023-03-15T06:22:09.963Z,11.89
2023-03-15T06:24:52.291Z,11.90
2023-03-15T06:27:22.148Z,11.81
2023-03-15T06:29:50.677Z,11.92
2023-03-15T06:32:20.179Z,11.99
2023-03-15T06:34:47.170Z,12.03
2023-03-15T06:37:22.772Z,12.01
2023-03-15T06:39:56.474Z,11.98
2023-03-15T06:42:23.486Z,12.07
2023-03-15T06:44:51.240Z,12.40
2023-03-15T06:47:19.428Z,12.45
2023-03-15T06:49:50.350Z,12.67
2023-03-15T06:52:18.265Z,12.74
2023-03-15T06:54:45.233Z,12.92
2023-03-15T06:57:12.125Z,12.89
2023-03-15T06:59:38.974Z,13.03
2023-03-15T07:02:07.068Z,13.02
2023-03-15T07:04:33.824Z,13.02
2023-03-15T07:07:01.242Z,13.13
2023-03-15T07:09:27.978Z,13.09
2023-03-15T07:11:54.841Z,12.95
2023-03-15T07:14:22.315Z,13.19
2023-03-15T07:16:49.240Z,13.23
2023-03-15T07:19:16.180Z,13.30
2023-03-15T07:21:43.004Z,13.51
2023-03-15T07:24:09.858Z,13.49
2023-03-15T07:26:36.641Z,13.66
2023-03-15T07:29:03.544Z,13.69
2023-03-15T07:31:30.695Z,13.86
2023-03-15T07:33:57.539Z,13.91
2023-03-15T07:36:24.301Z,13.98
2023-03-15T07:38:51.095Z,14.10
2023-03-15T07:41:17.846Z,14.06
2023-03-15T07:43:58.125Z,13.98
2023-03-15T07:46:25.413Z,14.05
2023-03-15T07:48:52.184Z,14.00
2023-03-15T07:51:18.964Z,14.23
2023-03-15T07:53:45.722Z,14.04
2023-03-15T07:56:12.512Z,14.26
2023-03-15T07:58:39.261Z,14.31
2023-03-15T08:01:06.098Z,14.30
2023-03-15T08:03:32.877Z,14.45
2023-03-15T08:05:59.655Z,14.47
2023-03-15T08:08:26.446Z,14.58
2023-03-15T08:10:53.283Z,14.54
2023-03-15T08:13:20.084Z,14.46
2023-03-15T08:15:47.710Z,14.32
2023-03-15T08:18:14.967Z,14.15
2023-03-15T08:20:41.727Z,14.26
2023-03-15T08:23:09.229Z,14.27
2023-03-15T08:25:41.139Z,14.45
2023-03-15T08:28:08.179Z,14.42
2023-03-15T08:30:35.276Z,14.53
2023-03-15T08:33:02.146Z,14.56
2023-03-15T08:35:29.468Z,14.94
2023-03-15T08:37:56.635Z,14.92
2023-03-15T08:40:26.258Z,14.75
2023-03-15T08:42:53.971Z,14.81
2023-03-15T08:45:24.246Z,15.23
2023-03-15T08:47:58.693Z,15.42
2023-03-15T08:50:27.266Z,15.54
2023-03-15T08:52:54.667Z,15.63
2023-03-15T08:55:21.486Z,15.70
2023-03-15T08:57:48.485Z,15.66
2023-03-15T09:00:20.767Z,15.79
2023-03-15T09:02:52.244Z,15.96
2023-03-15T09:05:20.442Z,16.22
2023-03-15T09:07:48.252Z,16.32
2023-03-15T09:10:17.158Z,16.54
2023-03-15T09:12:46.353Z,16.58
2023-03-15T09:15:13.623Z,16.68
2023-03-15T09:17:41.334Z,16.64
2023-03-15T09:20:19.177Z,16.78
2023-03-15T09:22:54.946Z,16.81
2023-03-15T09:25:23.054Z,16.76
2023-03-15T09:27:49.863Z,16.73
2023-03-15T09:30:17.032Z,16.74
2023-03-15T09:32:44.198Z,16.79
2023-03-15T09:35:15.625Z,16.87
2023-03-15T09:37:42.718Z,17.02
2023-03-15T09:40:28.261Z,17.22
2023-03-15T09:43:14.048Z,17.50
2023-03-15T09:45:55.589Z,17.70
2023-03-15T09:48:32.690Z,17.84
2023-03-15T09:51:23.725Z,18.01
2023-03-15T09:54:02.085Z,18.16
2023-03-15T09:56:36.673Z,18.26
2023-03-15T09:59:04.198Z,18.34
2023-03-15T10:01:39.829Z,18.45
2023-03-15T10:04:34.847Z,18.59
2023-03-15T10:07:04.060Z,18.65
2023-03-15T10:09:35.536Z,18.76
2023-03-15T10:12:06.435Z,18.85
2023-03-15T10:15:10.404Z,18.87
2023-03-15T10:17:58.703Z,18.92
2023-03-15T10:20:35.504Z,18.75
2023-03-15T10:23:50.427Z,18.72
2023-03-15T10:26:23.711Z,18.70
2023-03-15T10:28:53.021Z,18.55
2023-03-15T10:31:36.925Z,18.55
2023-03-15T10:34:11.613Z,18.62
2023-03-15T10:36:44.823Z,18.75
2023-03-15T10:39:13.065Z,18.75
2023-03-15T10:41:46.409Z,18.90
2023-03-15T10:44:16.700Z,18.72
2023-03-15T10:47:04.628Z,18.76
2023-03-15T10:49:36.828Z,18.91
2023-03-15T10:52:04.018Z,19.16
2023-03-15T10:54:33.913Z,19.35
2023-03-15T10:57:14.676Z,19.47
2023-03-15T11:00:17.378Z,19.64
2023-03-15T11:03:15.841Z,19.67
2023-03-15T11:05:51.191Z,19.75
2023-03-15T11:08:20.532Z,19.78
2023-03-15T11:10:56.284Z,19.70
2023-03-15T11:13:28.475Z,19.63
2023-03-15T11:16:13.642Z,19.62
2023-03-15T11:18:49.182Z,19.56
2023-03-15T11:21:19.640Z,19.63
2023-03-15T11:23:51.228Z,19.59
2023-03-15T11:26:32.701Z,19.42
2023-03-15T11:29:05.842Z,19.25
2023-03-15T11:31:34.252Z,19.15
